Time;durP1;ratioP1;P1;durP2;ratioP2;P2;SDS_P1;SDS_P2;PMS_P1;PMS_P2;Temp;Humidity;BMP_temperature;BMP_pressure;BME280_temperature;BME280_humidity;BME280_pressure;Samples;Min_cycle;Max_cycle;Signal;HPM_P1;HPM_P2
2021/08/27 00:02:02;;;;;;;;;;;11.30;1.00;;;;;;5007449;28;20000;-65
2021/08/27 00:04:28;;;;;;;;;;;11.30;1.00;;;;;;5010578;28;19996;-64
2021/08/27 00:06:53;;;;;;;;;;;11.30;1.00;;;;;;5009777;28;20025;-65
2021/08/27 00:09:19;;;;;;;;;;;11.20;1.00;;;;;;5010169;28;20393;-65
2021/08/27 00:11:45;;;;;;;;;;;11.20;1.00;;;;;;5009315;28;20082;-65
2021/08/27 00:14:10;;;;;;;;;;;11.20;1.00;;;;;;5009361;28;19909;-65
2021/08/27 00:16:36;;;;;;;;;;;11.20;1.00;;;;;;5009108;28;19918;-65
2021/08/27 00:19:02;;;;;;;;;;;11.20;1.00;;;;;;5010330;28;19953;-65
2021/08/27 00:21:27;;;;;;;;;;;11.20;1.00;;;;;;5009897;28;19914;-64
2021/08/27 00:23:52;;;;;;;;;;;11.20;1.00;;;;;;5008517;28;19909;-65
2021/08/27 00:26:18;;;;;;;;;;;11.30;1.00;;;;;;5009668;28;19914;-64
2021/08/27 00:28:43;;;;;;;;;;;11.30;1.00;;;;;;5009943;28;19917;-65
2021/08/27 00:31:09;;;;;;;;;;;11.40;1.00;;;;;;5008691;28;19913;-65
2021/08/27 00:33:34;;;;;;;;;;;11.40;1.00;;;;;;5009114;28;19910;-65
2021/08/27 00:36:00;;;;;;;;;;;11.50;1.00;;;;;;5009412;28;20236;-65
2021/08/27 00:38:25;;;;;;;;;;;11.60;1.00;;;;;;5009743;28;19910;-65
2021/08/27 00:40:51;;;;;;;;;;;11.70;1.00;;;;;;5009580;28;19985;-65
2021/08/27 00:43:16;;;;;;;;;;;11.70;1.00;;;;;;5008370;28;19956;-65
2021/08/27 00:45:46;;;;;;;;;;;11.80;1.00;;;;;;5007098;28;19916;-65
2021/08/27 00:48:13;;;;;;;;;;;11.90;1.00;;;;;;5009441;28;20008;-65
2021/08/27 00:50:38;;;;;;;;;;;12.00;1.00;;;;;;5007550;28;19924;-65
2021/08/27 00:53:04;;;;;;;;;;;12.00;1.00;;;;;;5002324;28;20000;-65
2021/08/27 00:55:29;;;;;;;;;;;12.10;1.00;;;;;;5009352;28;19913;-65
2021/08/27 00:57:55;;;;;;;;;;;12.20;1.00;;;;;;5009238;28;19917;-64
2021/08/27 01:00:21;;;;;;;;;;;12.20;1.00;;;;;;5009930;28;19914;-64
2021/08/27 01:02:47;;;;;;;;;;;12.20;1.00;;;;;;5008898;28;20358;-65
2021/08/27 01:05:12;;;;;;;;;;;12.20;1.00;;;;;;5009475;28;19963;-65
2021/08/27 01:07:47;;;;;;;;;;;12.20;1.00;;;;;;5009916;28;20007;-64
2021/08/27 01:10:22;;;;;;;;;;;12.20;1.00;;;;;;5013439;28;19917;-64
2021/08/27 01:12:51;;;;;;;;;;;12.20;1.00;;;;;;5008596;28;20396;-65
2021/08/27 01:15:16;;;;;;;;;;;12.20;1.00;;;;;;5012433;28;19925;-64
2021/08/27 01:18:02;;;;;;;;;;;12.20;1.00;;;;;;5012912;28;19921;-64
2021/08/27 01:20:27;;;;;;;;;;;12.20;1.00;;;;;;5013058;28;20461;-64
2021/08/27 01:22:53;;;;;;;;;;;12.30;1.00;;;;;;5012613;28;20004;-64
2021/08/27 01:25:19;;;;;;;;;;;12.30;1.00;;;;;;5012836;28;19927;-64
2021/08/27 01:27:46;;;;;;;;;;;12.30;1.00;;;;;;5013079;28;19910;-64
2021/08/27 01:30:16;;;;;;;;;;;12.30;1.00;;;;;;5012102;28;19928;-64
2021/08/27 01:32:51;;;;;;;;;;;12.30;1.00;;;;;;5011877;28;19913;-64
2021/08/27 01:35:16;;;;;;;;;;;12.30;1.00;;;;;;5012423;28;20382;-64
2021/08/27 01:37:44;;;;;;;;;;;12.30;1.00;;;;;;5012838;28;19920;-64
2021/08/27 01:40:10;;;;;;;;;;;12.40;1.00;;;;;;5012518;28;19909;-64
2021/08/27 01:42:36;;;;;;;;;;;12.40;1.00;;;;;;5011495;28;20275;-64
2021/08/27 01:45:02;;;;;;;;;;;12.40;1.00;;;;;;5012089;28;19921;-64
2021/08/27 01:47:31;;;;;;;;;;;12.30;1.00;;;;;;5012352;28;19913;-64
2021/08/27 01:49:57;;;;;;;;;;;12.20;1.00;;;;;;5008033;28;19917;-64
2021/08/27 01:52:23;;;;;;;;;;;12.20;1.00;;;;;;4992174;28;20306;-64
2021/08/27 01:54:49;;;;;;;;;;;12.10;1.00;;;;;;4993199;28;19941;-64
2021/08/27 01:57:14;;;;;;;;;;;12.10;1.00;;;;;;4992221;28;19917;-65
2021/08/27 01:59:41;;;;;;;;;;;12.10;1.00;;;;;;4992951;28;19914;-64
2021/08/27 02:02:08;;;;;;;;;;;12.10;1.00;;;;;;4990740;28;20029;-64
2021/08/27 02:04:35;;;;;;;;;;;12.00;1.00;;;;;;5010564;28;19910;-64
2021/08/27 02:07:01;;;;;;;;;;;12.10;1.00;;;;;;5012380;28;19948;-65
2021/08/27 02:09:27;;;;;;;;;;;12.10;1.00;;;;;;5012753;28;19959;-65
2021/08/27 02:11:53;;;;;;;;;;;12.10;1.00;;;;;;5011125;28;20008;-64
2021/08/27 02:14:18;;;;;;;;;;;12.10;1.00;;;;;;5012088;28;19956;-65
2021/08/27 02:16:44;;;;;;;;;;;12.20;1.00;;;;;;5011627;28;19914;-64
2021/08/27 02:19:10;;;;;;;;;;;12.20;1.00;;;;;;5012341;28;20366;-64
2021/08/27 02:21:40;;;;;;;;;;;12.30;1.00;;;;;;5012399;28;19921;-64
2021/08/27 02:24:09;;;;;;;;;;;12.30;1.00;;;;;;5011209;28;19910;-65
2021/08/27 02:26:36;;;;;;;;;;;12.40;1.00;;;;;;5010112;28;20335;-65
2021/08/27 02:29:01;;;;;;;;;;;12.40;1.00;;;;;;5008001;28;20232;-65
2021/08/27 02:31:27;;;;;;;;;;;12.50;1.00;;;;;;5010747;28;20048;-65
2021/08/27 02:33:54;;;;;;;;;;;12.50;1.00;;;;;;5011342;28;19951;-65
2021/08/27 02:36:19;;;;;;;;;;;12.50;1.00;;;;;;5011423;28;19913;-65
2021/08/27 02:38:47;;;;;;;;;;;12.60;1.00;;;;;;4996426;28;19914;-65
2021/08/27 02:41:13;;;;;;;;;;;12.60;1.00;;;;;;4992386;28;20391;-66
2021/08/27 02:43:38;;;;;;;;;;;12.60;1.00;;;;;;4991448;28;19949;-66
2021/08/27 02:46:04;;;;;;;;;;;12.60;1.00;;;;;;4990139;28;20007;-65
2021/08/27 02:48:30;;;;;;;;;;;12.50;1.00;;;;;;4992599;28;19961;-66
2021/08/27 02:50:59;;;;;;;;;;;12.60;1.00;;;;;;5002946;28;20743;-65
2021/08/27 02:53:27;;;;;;;;;;;12.50;1.00;;;;;;5010960;28;20732;-65
2021/08/27 02:55:55;;;;;;;;;;;12.50;1.00;;;;;;5011417;28;19945;-65
2021/08/27 02:58:22;;;;;;;;;;;12.50;1.00;;;;;;5010969;28;19910;-66
2021/08/27 03:00:57;;;;;;;;;;;12.50;1.00;;;;;;5010593;28;19913;-66
2021/08/27 03:03:24;;;;;;;;;;;12.50;1.00;;;;;;5010543;28;19910;-65
2021/08/27 03:05:53;;;;;;;;;;;12.60;1.00;;;;;;5009280;28;19921;-65
2021/08/27 03:08:21;;;;;;;;;;;12.60;1.00;;;;;;5011172;28;19914;-65
2021/08/27 03:11:16;;;;;;;;;;;12.60;1.00;;;;;;5011271;28;19913;-66
2021/08/27 03:13:46;;;;;;;;;;;12.60;1.00;;;;;;5005497;28;19921;-65
2021/08/27 03:16:15;;;;;;;;;;;12.60;1.00;;;;;;5010224;28;19913;-66
2021/08/27 03:18:44;;;;;;;;;;;12.50;1.00;;;;;;5012799;28;20380;-65
2021/08/27 03:21:28;;;;;;;;;;;12.50;1.00;;;;;;5011651;28;19909;-65
2021/08/27 03:23:56;;;;;;;;;;;12.50;1.00;;;;;;5010699;28;20020;-65
2021/08/27 03:26:24;;;;;;;;;;;12.40;1.00;;;;;;5010859;28;19911;-65
2021/08/27 03:28:52;;;;;;;;;;;12.40;1.00;;;;;;5010938;28;20367;-66
2021/08/27 03:31:18;;;;;;;;;;;12.40;1.00;;;;;;5008906;28;19917;-66
2021/08/27 03:33:44;;;;;;;;;;;12.40;1.00;;;;;;5010316;28;19909;-66
2021/08/27 03:36:09;;;;;;;;;;;12.40;1.00;;;;;;5010383;28;19916;-66
2021/08/27 03:38:35;;;;;;;;;;;12.40;1.00;;;;;;5010930;28;19909;-66
2021/08/27 03:41:01;;;;;;;;;;;12.50;1.00;;;;;;5011245;28;19936;-65
2021/08/27 03:43:27;;;;;;;;;;;12.50;1.00;;;;;;5010449;28;20294;-67
2021/08/27 03:45:53;;;;;;;;;;;12.50;1.00;;;;;;5010708;28;20386;-65
2021/08/27 03:48:19;;;;;;;;;;;12.50;1.00;;;;;;5011704;28;19920;-66
2021/08/27 03:50:45;;;;;;;;;;;12.60;1.00;;;;;;5008205;28;20220;-65
2021/08/27 03:53:11;;;;;;;;;;;12.60;1.00;;;;;;5005335;28;20289;-66
2021/08/27 03:55:37;;;;;;;;;;;12.70;1.00;;;;;;5010504;28;19910;-65
2021/08/27 03:58:02;;;;;;;;;;;12.70;1.00;;;;;;5010534;28;19968;-65
2021/08/27 04:00:28;;;;;;;;;;;12.70;1.00;;;;;;5010288;28;19918;-66
2021/08/27 04:02:56;;;;;;;;;;;12.70;1.00;;;;;;5009746;28;20362;-65
2021/08/27 04:05:22;;;;;;;;;;;12.70;1.00;;;;;;5010786;28;20239;-66
2021/08/27 04:07:48;;;;;;;;;;;12.70;1.00;;;;;;5010484;28;19921;-66
2021/08/27 04:10:15;;;;;;;;;;;12.70;1.00;;;;;;5011055;28;19916;-66
2021/08/27 04:12:41;;;;;;;;;;;12.70;1.00;;;;;;5009275;28;19932;-65
2021/08/27 04:15:11;;;;;;;;;;;12.70;1.00;;;;;;5010197;28;19921;-66
2021/08/27 04:17:37;;;;;;;;;;;12.70;1.00;;;;;;5010181;28;19917;-66
2021/08/27 04:20:03;;;;;;;;;;;12.60;1.00;;;;;;5009891;28;20016;-66
2021/08/27 04:22:29;;;;;;;;;;;12.60;1.00;;;;;;5009263;28;19917;-66
2021/08/27 04:24:54;;;;;;;;;;;12.60;1.00;;;;;;5009366;28;19910;-65
2021/08/27 04:27:20;;;;;;;;;;;12.60;1.00;;;;;;5009035;28;19909;-66
2021/08/27 04:29:45;;;;;;;;;;;12.60;1.00;;;;;;5009873;28;20420;-66
2021/08/27 04:32:11;;;;;;;;;;;12.50;1.00;;;;;;5007666;28;19964;-66
2021/08/27 04:34:36;;;;;;;;;;;12.50;1.00;;;;;;4997705;28;19910;-66
2021/08/27 04:37:02;;;;;;;;;;;12.50;1.00;;;;;;4990252;28;19960;-66
2021/08/27 04:39:28;;;;;;;;;;;12.60;1.00;;;;;;5008567;28;19949;-65
2021/08/27 04:41:53;;;;;;;;;;;12.60;1.00;;;;;;5008351;28;20358;-66
2021/08/27 04:44:19;;;;;;;;;;;12.50;1.00;;;;;;5009791;28;19913;-66
2021/08/27 04:46:44;;;;;;;;;;;12.50;1.00;;;;;;5005033;28;19928;-66
2021/08/27 04:49:10;;;;;;;;;;;12.50;1.00;;;;;;5002624;28;19938;-66
2021/08/27 04:51:35;;;;;;;;;;;12.50;1.00;;;;;;5009274;28;19980;-65
2021/08/27 04:54:01;;;;;;;;;;;12.50;1.00;;;;;;5002252;28;20004;-66
2021/08/27 04:56:26;;;;;;;;;;;12.60;1.00;;;;;;5004069;28;19910;-66
2021/08/27 04:58:52;;;;;;;;;;;12.60;1.00;;;;;;5005356;28;19913;-66
2021/08/27 05:01:18;;;;;;;;;;;12.60;1.00;;;;;;5004807;28;19929;-66
2021/08/27 05:03:43;;;;;;;;;;;12.70;1.00;;;;;;5005460;28;19909;-66
2021/08/27 05:06:09;;;;;;;;;;;12.70;1.00;;;;;;5007314;28;19909;-66
2021/08/27 05:08:34;;;;;;;;;;;12.70;1.00;;;;;;5006030;28;20544;-66
2021/08/27 05:11:00;;;;;;;;;;;12.70;1.00;;;;;;5005680;28;20386;-66
2021/08/27 05:13:25;;;;;;;;;;;12.80;1.00;;;;;;5004469;28;20004;-66
2021/08/27 05:15:51;;;;;;;;;;;12.80;1.00;;;;;;5005488;28;20418;-66
2021/08/27 05:18:16;;;;;;;;;;;12.90;1.00;;;;;;5005658;28;19918;-67
2021/08/27 05:20:42;;;;;;;;;;;12.90;1.00;;;;;;5005645;28;19910;-66
2021/08/27 05:23:07;;;;;;;;;;;13.00;1.00;;;;;;5004628;28;19918;-66
2021/08/27 05:25:33;;;;;;;;;;;13.00;1.00;;;;;;5005151;28;19914;-67
2021/08/27 05:27:58;;;;;;;;;;;13.00;1.00;;;;;;5004382;28;20418;-67
2021/08/27 05:30:24;;;;;;;;;;;13.10;1.00;;;;;;4989065;28;19992;-68
2021/08/27 05:32:49;;;;;;;;;;;13.10;1.00;;;;;;4992351;28;19922;-67
2021/08/27 05:35:15;;;;;;;;;;;13.20;1.00;;;;;;5004984;28;19909;-67
2021/08/27 05:37:41;;;;;;;;;;;13.30;1.00;;;;;;4998187;28;20377;-66
2021/08/27 05:40:07;;;;;;;;;;;13.30;1.00;;;;;;5003076;28;20019;-67
2021/08/27 05:42:33;;;;;;;;;;;13.50;1.00;;;;;;5004456;28;19914;-67
2021/08/27 05:44:58;;;;;;;;;;;13.50;1.00;;;;;;5004887;28;20322;-65
2021/08/27 05:47:24;;;;;;;;;;;13.60;1.00;;;;;;5003017;28;20408;-65
2021/08/27 05:49:49;;;;;;;;;;;13.70;1.00;;;;;;5005653;28;19996;-64
2021/08/27 05:52:15;;;;;;;;;;;13.70;1.00;;;;;;5004389;28;19974;-65
2021/08/27 05:54:40;;;;;;;;;;;13.80;1.00;;;;;;5005167;28;19985;-65
2021/08/27 05:57:06;;;;;;;;;;;13.80;1.00;;;;;;5003940;28;19977;-65
2021/08/27 05:59:32;;;;;;;;;;;13.90;1.00;;;;;;5005068;28;19909;-65
2021/08/27 06:01:57;;;;;;;;;;;13.90;1.00;;;;;;5006466;28;19921;-66
2021/08/27 06:04:23;;;;;;;;;;;13.90;1.00;;;;;;5009059;28;19988;-66
2021/08/27 06:06:50;;;;;;;;;;;13.90;1.00;;;;;;5008017;28;20402;-66
2021/08/27 06:09:15;;;;;;;;;;;14.00;1.00;;;;;;5007606;28;19917;-65
2021/08/27 06:11:41;;;;;;;;;;;14.00;1.00;;;;;;5005520;28;19917;-65
2021/08/27 06:14:07;;;;;;;;;;;14.00;1.00;;;;;;5007746;28;19909;-65
2021/08/27 06:16:33;;;;;;;;;;;14.00;1.00;;;;;;5007642;28;19913;-66
2021/08/27 06:18:59;;;;;;;;;;;14.10;1.00;;;;;;5007990;28;20410;-66
2021/08/27 06:21:24;;;;;;;;;;;14.10;1.00;;;;;;5008022;28;19913;-65
2021/08/27 06:23:52;;;;;;;;;;;14.10;1.00;;;;;;5006091;28;19921;-66
2021/08/27 06:26:18;;;;;;;;;;;14.10;1.00;;;;;;5005433;28;19913;-66
2021/08/27 06:28:43;;;;;;;;;;;14.00;1.00;;;;;;5007391;28;19936;-66
2021/08/27 06:31:09;;;;;;;;;;;14.00;1.00;;;;;;5006728;28;20004;-66
2021/08/27 06:33:34;;;;;;;;;;;14.00;1.00;;;;;;5007643;28;20338;-66
2021/08/27 06:36:00;;;;;;;;;;;14.00;1.00;;;;;;5008323;28;19996;-66
2021/08/27 06:38:25;;;;;;;;;;;14.00;1.00;;;;;;5008193;28;20238;-67
2021/08/27 06:40:53;;;;;;;;;;;14.00;1.00;;;;;;5007995;28;19971;-66
2021/08/27 06:43:18;;;;;;;;;;;14.10;1.00;;;;;;5006490;28;19910;-66
2021/08/27 06:45:44;;;;;;;;;;;14.10;1.00;;;;;;5007574;28;19952;-66
2021/08/27 06:48:09;;;;;;;;;;;14.10;1.00;;;;;;5007562;28;19917;-68
2021/08/27 06:50:38;;;;;;;;;;;14.20;1.00;;;;;;5006715;28;19909;-68
2021/08/27 06:53:04;;;;;;;;;;;14.20;1.00;;;;;;5000961;28;19913;-69
2021/08/27 06:55:29;;;;;;;;;;;14.20;1.00;;;;;;5007629;28;19921;-68
2021/08/27 06:57:54;;;;;;;;;;;14.30;1.00;;;;;;5007407;28;19909;-70
2021/08/27 07:00:20;;;;;;;;;;;14.30;1.00;;;;;;5006499;28;19970;-70
2021/08/27 07:02:46;;;;;;;;;;;14.30;1.00;;;;;;5006717;28;19909;-68
2021/08/27 07:05:11;;;;;;;;;;;14.30;1.00;;;;;;5007994;28;20073;-69
2021/08/27 07:07:37;;;;;;;;;;;14.20;1.00;;;;;;5007043;28;20562;-69
2021/08/27 07:10:03;;;;;;;;;;;14.20;1.00;;;;;;5011095;28;20388;-69
2021/08/27 07:12:29;;;;;;;;;;;14.20;1.00;;;;;;5009226;28;19936;-68
2021/08/27 07:14:54;;;;;;;;;;;14.20;1.00;;;;;;5010961;28;19913;-67
2021/08/27 07:17:20;;;;;;;;;;;14.20;1.00;;;;;;5008034;28;19917;-67
2021/08/27 07:19:46;;;;;;;;;;;14.30;1.00;;;;;;5010412;28;19909;-69
2021/08/27 07:22:12;;;;;;;;;;;14.30;1.00;;;;;;5010171;28;19980;-69
2021/08/27 07:24:37;;;;;;;;;;;14.40;1.00;;;;;;5008525;28;19961;-68
2021/08/27 07:27:03;;;;;;;;;;;14.50;1.00;;;;;;5006934;28;19940;-69
2021/08/27 07:29:28;;;;;;;;;;;15.30;1.00;;;;;;5009996;28;19909;-67
2021/08/27 07:31:54;;;;;;;;;;;17.50;99.90;;;;;;4998125;28;19918;-67
2021/08/27 07:34:19;;;;;;;;;;;18.60;99.90;;;;;;4990653;28;20204;-69
2021/08/27 07:36:45;;;;;;;;;;;19.50;1.00;;;;;;5001327;28;20326;-68
2021/08/27 07:39:10;;;;;;;;;;;21.20;1.00;;;;;;5001263;28;19949;-68
2021/08/27 07:41:36;;;;;;;;;;;22.60;99.90;;;;;;5008330;28;19909;-69
2021/08/27 07:44:01;;;;;;;;;;;23.30;99.90;;;;;;5008100;28;19910;-68
2021/08/27 07:46:27;;;;;;;;;;;25.20;99.90;;;;;;5009121;28;19913;-68
2021/08/27 07:48:53;;;;;;;;;;;25.50;99.90;;;;;;5008809;28;19932;-68
2021/08/27 07:51:18;;;;;;;;;;;25.10;99.90;;;;;;5009262;28;19910;-70
2021/08/27 07:53:44;;;;;;;;;;;24.80;99.90;;;;;;5008445;28;19919;-69
2021/08/27 07:56:09;;;;;;;;;;;23.90;99.90;;;;;;5009274;28;20358;-69
2021/08/27 07:58:35;;;;;;;;;;;23.20;99.90;;;;;;5008009;28;19971;-68
2021/08/27 08:01:01;;;;;;;;;;;22.80;99.90;;;;;;5009222;28;19914;-69
2021/08/27 08:03:26;;;;;;;;;;;23.80;99.90;;;;;;5008208;28;20001;-69
2021/08/27 08:05:52;;;;;;;;;;;26.30;99.90;;;;;;5009207;28;19910;-69
2021/08/27 08:08:17;;;;;;;;;;;29.70;99.90;;;;;;5008844;28;19913;-69
2021/08/27 08:10:43;;;;;;;;;;;32.40;99.90;;;;;;5008856;28;19916;-70
2021/08/27 08:13:08;;;;;;;;;;;33.90;99.90;;;;;;5007664;28;20464;-70
2021/08/27 08:15:36;;;;;;;;;;;33.40;99.90;;;;;;5008500;28;20381;-70
2021/08/27 08:18:02;;;;;;;;;;;31.70;99.90;;;;;;5008069;28;19917;-70
2021/08/27 08:20:28;;;;;;;;;;;29.50;99.90;;;;;;5008831;28;19917;-69
2021/08/27 08:22:54;;;;;;;;;;;27.60;99.90;;;;;;5009301;28;19916;-67
2021/08/27 08:25:19;;;;;;;;;;;26.10;99.90;;;;;;4992391;28;20295;-68
2021/08/27 08:27:45;;;;;;;;;;;24.70;99.90;;;;;;5003336;28;20254;-68
2021/08/27 08:30:10;;;;;;;;;;;23.60;99.90;;;;;;5005787;28;19913;-67
2021/08/27 08:32:36;;;;;;;;;;;22.80;99.90;;;;;;5007450;28;19913;-68
2021/08/27 08:35:03;;;;;;;;;;;22.10;99.90;;;;;;5008763;28;19949;-69
2021/08/27 08:37:29;;;;;;;;;;;21.30;99.90;;;;;;5007320;28;19914;-68
2021/08/27 08:39:54;;;;;;;;;;;20.50;99.90;;;;;;5008694;28;19936;-68
2021/08/27 08:42:20;;;;;;;;;;;19.80;99.90;;;;;;5007134;28;19923;-68
2021/08/27 08:44:46;;;;;;;;;;;19.30;99.90;;;;;;5008755;28;19913;-69
2021/08/27 08:47:11;;;;;;;;;;;19.00;99.90;;;;;;5003963;28;20359;-69
2021/08/27 08:49:37;;;;;;;;;;;18.90;99.90;;;;;;4989972;28;19925;-69
2021/08/27 08:52:03;;;;;;;;;;;19.10;99.90;;;;;;5009032;28;19918;-69
2021/08/27 08:54:29;;;;;;;;;;;19.90;99.90;;;;;;5008919;28;19910;-68
2021/08/27 08:56:56;;;;;;;;;;;20.50;99.90;;;;;;5009112;28;20353;-69
2021/08/27 08:59:21;;;;;;;;;;;22.80;99.90;;;;;;5009592;28;19913;-70
2021/08/27 09:01:47;;;;;;;;;;;27.30;99.90;;;;;;5008502;28;19917;-69
2021/08/27 09:04:12;;;;;;;;;;;29.80;99.90;;;;;;5008891;28;19913;-67
2021/08/27 09:06:38;;;;;;;;;;;28.80;99.90;;;;;;5009577;28;19910;-68
2021/08/27 09:09:04;;;;;;;;;;;27.20;99.90;;;;;;5009362;28;20682;-68
2021/08/27 09:11:30;;;;;;;;;;;26.20;99.90;;;;;;5009273;28;19917;-67
2021/08/27 09:14:00;;;;;;;;;;;26.20;99.90;;;;;;5008370;28;19914;-66
2021/08/27 09:16:30;;;;;;;;;;;25.80;99.90;;;;;;5008647;28;19913;-67
2021/08/27 09:18:56;;;;;;;;;;;25.50;99.90;;;;;;5015215;28;19912;-68
2021/08/27 09:21:38;;;;;;;;;;;25.30;99.90;;;;;;5016354;28;19910;-68
2021/08/27 09:24:11;;;;;;;;;;;26.90;99.90;;;;;;5015709;28;19910;-66
2021/08/27 09:26:37;;;;;;;;;;;29.20;99.90;;;;;;5014543;28;19988;-69
2021/08/27 09:29:02;;;;;;;;;;;30.70;99.90;;;;;;5007599;28;20469;-69
2021/08/27 09:31:35;;;;;;;;;;;32.30;99.90;;;;;;5009409;28;19909;-68
2021/08/27 09:34:00;;;;;;;;;;;32.60;99.90;;;;;;5008886;28;19909;-69
2021/08/27 09:36:28;;;;;;;;;;;32.50;99.90;;;;;;5011835;28;20003;-65
2021/08/27 09:39:02;;;;;;;;;;;31.20;99.90;;;;;;5012671;28;20008;-64
2021/08/27 09:41:28;;;;;;;;;;;29.90;99.90;;;;;;5016824;28;19909;-64
2021/08/27 09:43:57;;;;;;;;;;;28.80;99.90;;;;;;5031199;28;19971;-66
2021/08/27 09:46:42;;;;;;;;;;;28.10;99.90;;;;;;5032060;28;19961;-65
2021/08/27 09:49:26;;;;;;;;;;;27.70;99.90;;;;;;5031768;28;20322;-65
2021/08/27 09:51:52;;;;;;;;;;;27.70;99.90;;;;;;4999785;28;20004;-65
2021/08/27 09:54:26;;;;;;;;;;;27.70;99.90;;;;;;4992379;28;20405;-65
2021/08/27 09:56:54;;;;;;;;;;;27.90;99.90;;;;;;4991778;28;19910;-65
2021/08/27 09:59:36;;;;;;;;;;;28.80;99.90;;;;;;4993005;28;19914;-65
2021/08/27 10:02:02;;;;;;;;;;;31.20;99.90;;;;;;5010023;28;19996;-65
2021/08/27 10:04:29;;;;;;;;;;;32.70;99.90;;;;;;5012060;28;19924;-65
2021/08/27 10:06:54;;;;;;;;;;;32.10;99.90;;;;;;5012489;28;19955;-65
2021/08/27 10:09:19;;;;;;;;;;;30.10;99.90;;;;;;5012741;28;20016;-65
2021/08/27 10:11:48;;;;;;;;;;;29.00;99.90;;;;;;5011568;28;19923;-65
2021/08/27 10:14:14;;;;;;;;;;;28.00;99.90;;;;;;5011587;28;20208;-66
2021/08/27 10:16:41;;;;;;;;;;;27.40;99.90;;;;;;5011616;28;20063;-68
2021/08/27 10:19:07;;;;;;;;;;;28.30;99.90;;;;;;5012851;28;19918;-64
2021/08/27 10:21:32;;;;;;;;;;;30.50;99.90;;;;;;5012287;28;20414;-66
2021/08/27 10:23:58;;;;;;;;;;;31.20;99.90;;;;;;5011327;28;20057;-65
2021/08/27 10:26:25;;;;;;;;;;;30.30;99.90;;;;;;5009981;28;20285;-65
2021/08/27 10:28:51;;;;;;;;;;;29.30;99.90;;;;;;5011968;28;19917;-65
2021/08/27 10:31:17;;;;;;;;;;;28.40;99.90;;;;;;5009943;28;19949;-66
2021/08/27 10:33:43;;;;;;;;;;;28.10;99.90;;;;;;5011943;28;19909;-66
2021/08/27 10:36:09;;;;;;;;;;;28.00;99.90;;;;;;5013032;28;20956;-67
2021/08/27 10:38:40;;;;;;;;;;;27.40;99.90;;;;;;5010093;28;20385;-67
2021/08/27 10:41:08;;;;;;;;;;;26.90;99.90;;;;;;5007770;28;19991;-66
2021/08/27 10:43:53;;;;;;;;;;;26.30;99.90;;;;;;5010914;28;19910;-66
2021/08/27 10:46:18;;;;;;;;;;;25.80;99.90;;;;;;5010575;28;19914;-66
2021/08/27 10:48:48;;;;;;;;;;;25.70;99.90;;;;;;5011502;28;19921;-66
2021/08/27 10:51:53;;;;;;;;;;;26.40;99.90;;;;;;5011880;28;19910;-65
2021/08/27 10:54:19;;;;;;;;;;;27.70;99.90;;;;;;4990526;28;19963;-65
2021/08/27 10:56:51;;;;;;;;;;;28.60;99.90;;;;;;5007647;28;19960;-66
2021/08/27 10:59:18;;;;;;;;;;;28.80;99.90;;;;;;5012726;28;20304;-66
2021/08/27 11:01:45;;;;;;;;;;;28.30;99.90;;;;;;5011099;28;19936;-66
2021/08/27 11:04:11;;;;;;;;;;;29.00;99.90;;;;;;5011446;28;20250;-66
2021/08/27 11:07:04;;;;;;;;;;;30.10;99.90;;;;;;5010098;28;20294;-66
2021/08/27 11:09:30;;;;;;;;;;;30.40;99.90;;;;;;5010309;28;19932;-66
2021/08/27 11:12:15;;;;;;;;;;;29.60;99.90;;;;;;5010647;28;19913;-65
2021/08/27 11:14:47;;;;;;;;;;;28.50;98.40;;;;;;5011064;28;19920;-65
2021/08/27 11:17:13;;;;;;;;;;;27.10;97.00;;;;;;5010166;28;19973;-65
2021/08/27 11:19:41;;;;;;;;;;;25.80;96.70;;;;;;5011526;28;19909;-64
2021/08/27 11:22:10;;;;;;;;;;;25.00;96.80;;;;;;5010339;28;19918;-65
2021/08/27 11:24:39;;;;;;;;;;;24.70;98.60;;;;;;5011083;28;19913;-66
2021/08/27 11:27:05;;;;;;;;;;;24.40;99.60;;;;;;5009905;28;19910;-64
2021/08/27 11:29:41;;;;;;;;;;;24.50;99.90;;;;;;5008461;28;19910;-65
2021/08/27 11:32:26;;;;;;;;;;;24.50;99.90;;;;;;5009322;28;19914;-65
2021/08/27 11:34:54;;;;;;;;;;;24.40;99.90;;;;;;5010466;28;19909;-65
2021/08/27 11:37:21;;;;;;;;;;;24.20;99.90;;;;;;5006408;28;19921;-65
2021/08/27 11:39:48;;;;;;;;;;;23.80;99.90;;;;;;4991520;28;20008;-66
2021/08/27 11:42:14;;;;;;;;;;;23.70;99.90;;;;;;4989817;28;20457;-66
2021/08/27 11:44:43;;;;;;;;;;;23.70;99.90;;;;;;4991554;28;19914;-66
2021/08/27 11:47:12;;;;;;;;;;;23.60;99.90;;;;;;4990566;28;19914;-67
2021/08/27 11:49:48;;;;;;;;;;;23.50;99.90;;;;;;4992959;28;20003;-64
2021/08/27 11:52:35;;;;;;;;;;;23.40;99.90;;;;;;5009480;28;19917;-65
2021/08/27 11:55:08;;;;;;;;;;;23.40;99.90;;;;;;5009991;28;19956;-67
2021/08/27 11:57:34;;;;;;;;;;;23.40;99.90;;;;;;5009567;28;19909;-65
2021/08/27 12:00:07;;;;;;;;;;;23.70;99.90;;;;;;5008906;28;19909;-65
2021/08/27 12:02:32;;;;;;;;;;;24.00;99.90;;;;;;5006911;28;20016;-65
2021/08/27 12:05:00;;;;;;;;;;;24.10;99.90;;;;;;5009776;28;19916;-66
2021/08/27 12:07:30;;;;;;;;;;;24.30;99.90;;;;;;5009780;28;20011;-65
2021/08/27 12:10:09;;;;;;;;;;;24.70;99.90;;;;;;5009801;28;19910;-65
2021/08/27 12:12:36;;;;;;;;;;;25.30;99.90;;;;;;5008113;28;20008;-66
2021/08/27 12:15:03;;;;;;;;;;;25.10;99.90;;;;;;5008325;28;19910;-65
2021/08/27 12:17:29;;;;;;;;;;;25.10;99.90;;;;;;5008424;28;20052;-66
2021/08/27 12:19:56;;;;;;;;;;;24.80;99.90;;;;;;5010049;28;20438;-65
2021/08/27 12:22:22;;;;;;;;;;;24.70;99.90;;;;;;5008896;28;19960;-65
2021/08/27 12:24:49;;;;;;;;;;;24.40;99.90;;;;;;4999668;28;19913;-64
2021/08/27 12:27:15;;;;;;;;;;;24.30;99.90;;;;;;4989553;28;19914;-66
2021/08/27 12:29:41;;;;;;;;;;;24.00;99.90;;;;;;5006420;28;19916;-66
2021/08/27 12:32:07;;;;;;;;;;;23.90;99.90;;;;;;5007826;28;19964;-65
2021/08/27 12:34:33;;;;;;;;;;;24.20;99.90;;;;;;5009377;28;19958;-65
2021/08/27 12:36:58;;;;;;;;;;;24.70;99.90;;;;;;5008966;28;19909;-66
2021/08/27 12:39:24;;;;;;;;;;;25.00;99.90;;;;;;5010059;28;19917;-66
2021/08/27 12:41:49;;;;;;;;;;;25.30;99.90;;;;;;5009326;28;19918;-66
2021/08/27 12:44:16;;;;;;;;;;;25.40;99.90;;;;;;5008459;28;20029;-66
2021/08/27 12:46:49;;;;;;;;;;;25.40;99.90;;;;;;5009160;28;19909;-65
2021/08/27 12:49:15;;;;;;;;;;;25.40;99.90;;;;;;5008509;28;20004;-66
2021/08/27 12:51:42;;;;;;;;;;;25.40;99.90;;;;;;5000872;28;19921;-66
2021/08/27 12:54:07;;;;;;;;;;;25.50;99.90;;;;;;5008147;28;19964;-65
2021/08/27 12:56:33;;;;;;;;;;;25.60;99.90;;;;;;5008430;28;19917;-66
2021/08/27 12:59:12;;;;;;;;;;;25.40;99.90;;;;;;5008825;28;19914;-64
2021/08/27 13:01:38;;;;;;;;;;;25.20;99.90;;;;;;5008800;28;20028;-65
2021/08/27 13:04:03;;;;;;;;;;;25.00;99.90;;;;;;5008451;28;20001;-64
2021/08/27 13:06:35;;;;;;;;;;;25.00;99.90;;;;;;5009131;28;19914;-64
2021/08/27 13:09:07;;;;;;;;;;;25.20;99.90;;;;;;5008060;28;20287;-63
2021/08/27 13:11:44;;;;;;;;;;;25.10;99.90;;;;;;5008722;28;19916;-65
2021/08/27 13:14:16;;;;;;;;;;;25.00;99.90;;;;;;5008373;28;20392;-66
2021/08/27 13:16:55;;;;;;;;;;;24.80;99.90;;;;;;5008667;28;20310;-66
2021/08/27 13:19:20;;;;;;;;;;;24.70;99.90;;;;;;5006774;28;19999;-65
2021/08/27 13:21:46;;;;;;;;;;;24.50;99.90;;;;;;5008451;28;19988;-65
2021/08/27 13:24:12;;;;;;;;;;;24.20;99.90;;;;;;5008459;28;19996;-66
2021/08/27 13:26:38;;;;;;;;;;;23.90;99.90;;;;;;5008550;28;20013;-65
2021/08/27 13:29:04;;;;;;;;;;;23.60;99.90;;;;;;5008565;28;19920;-65
2021/08/27 13:31:31;;;;;;;;;;;23.40;99.90;;;;;;5008486;28;20002;-65
2021/08/27 13:33:56;;;;;;;;;;;23.30;99.90;;;;;;5007076;28;19916;-66
2021/08/27 13:36:22;;;;;;;;;;;23.20;99.90;;;;;;5008868;28;20398;-66
2021/08/27 13:38:48;;;;;;;;;;;23.20;99.90;;;;;;5007130;28;19916;-65
2021/08/27 13:41:14;;;;;;;;;;;23.10;99.90;;;;;;5008813;28;19920;-66
2021/08/27 13:43:39;;;;;;;;;;;23.00;99.90;;;;;;5008132;28;20359;-64
2021/08/27 13:46:05;;;;;;;;;;;22.90;99.90;;;;;;5008262;28;19921;-65
2021/08/27 13:48:30;;;;;;;;;;;22.80;99.90;;;;;;5007432;28;19989;-63
2021/08/27 13:50:56;;;;;;;;;;;22.80;99.90;;;;;;5004352;28;20439;-65
2021/08/27 13:53:21;;;;;;;;;;;22.60;99.90;;;;;;4995892;28;19985;-65
2021/08/27 13:55:47;;;;;;;;;;;22.50;99.90;;;;;;4997361;28;19959;-65
2021/08/27 13:58:12;;;;;;;;;;;22.30;99.90;;;;;;4998149;28;19988;-67
2021/08/27 14:00:38;;;;;;;;;;;22.20;99.90;;;;;;4998228;28;19920;-68
2021/08/27 14:03:03;;;;;;;;;;;22.00;99.90;;;;;;5005225;28;19923;-65
2021/08/27 14:05:29;;;;;;;;;;;21.70;99.90;;;;;;4999974;28;19914;-65
2021/08/27 14:07:54;;;;;;;;;;;21.60;99.90;;;;;;5007604;28;20001;-66
2021/08/27 14:10:20;;;;;;;;;;;21.50;99.90;;;;;;5007520;28;20021;-66
2021/08/27 14:12:46;;;;;;;;;;;21.20;99.90;;;;;;5006749;28;20397;-65
2021/08/27 14:15:12;;;;;;;;;;;21.00;99.90;;;;;;5007465;28;20004;-63
2021/08/27 14:17:38;;;;;;;;;;;20.80;99.90;;;;;;5003717;28;19917;-65
2021/08/27 14:20:05;;;;;;;;;;;21.10;99.90;;;;;;5007139;28;19909;-65
2021/08/27 14:22:30;;;;;;;;;;;21.40;99.90;;;;;;5009352;28;19913;-65
2021/08/27 14:24:56;;;;;;;;;;;21.30;99.90;;;;;;5010309;28;20445;-65